Time;durP1;ratioP1;P1;durP2;ratioP2;P2;SDS_P1;SDS_P2;PMS_P1;PMS_P2;Temp;Humidity;BMP_temperature;BMP_pressure;BME280_temperature;BME280_humidity;BME280_pressure;Samples;Min_cycle;Max_cycle;Signal;HPM_P1;HPM_P2
2023/12/11 00:01:04;;;;;;;3.83;2.38;;;15.60;92.00;;;;;;7394175;19;19914;-73
2023/12/11 00:03:31;;;;;;;4.15;2.03;;;15.50;92.00;;;;;;7396241;19;20341;-72
2023/12/11 00:06:00;;;;;;;4.30;2.20;;;15.50;92.00;;;;;;7402017;19;19925;-73
2023/12/11 00:08:26;;;;;;;3.90;1.83;;;15.50;91.90;;;;;;7375311;19;19918;-73
2023/12/11 00:10:52;;;;;;;4.72;2.50;;;15.50;92.10;;;;;;7395411;19;19914;-73
2023/12/11 00:13:18;;;;;;;4.43;1.92;;;15.40;92.30;;;;;;7395975;19;20248;-73
2023/12/11 00:15:44;;;;;;;5.68;2.40;;;15.40;92.40;;;;;;7402265;19;19943;-71
2023/12/11 00:18:10;;;;;;;4.03;2.20;;;15.40;92.10;;;;;;7403010;19;20253;-72
2023/12/11 00:20:36;;;;;;;3.83;1.58;;;15.40;92.30;;;;;;7402020;19;19915;-72
2023/12/11 00:23:02;;;;;;;6.22;2.38;;;15.60;92.50;;;;;;7403144;19;19918;-72
2023/12/11 00:25:28;;;;;;;4.63;2.33;;;15.50;92.30;;;;;;7378386;19;19936;-72
2023/12/11 00:27:54;;;;;;;4.13;1.70;;;15.60;92.00;;;;;;7402175;19;19914;-72
2023/12/11 00:30:19;;;;;;;3.50;1.70;;;15.60;91.80;;;;;;7402289;19;19929;-71
2023/12/11 00:32:45;;;;;;;4.93;2.72;;;15.70;91.50;;;;;;7396245;19;19950;-72
2023/12/11 00:35:11;;;;;;;4.43;2.60;;;15.70;91.20;;;;;;7399250;19;19966;-72
2023/12/11 00:37:37;;;;;;;4.50;2.33;;;15.60;91.50;;;;;;7400854;19;19918;-72
2023/12/11 00:40:03;;;;;;;3.55;1.63;;;15.70;91.70;;;;;;7399218;19;20248;-72
2023/12/11 00:42:29;;;;;;;4.15;1.90;;;15.70;91.30;;;;;;7399090;19;19925;-72
2023/12/11 00:44:55;;;;;;;4.00;2.38;;;15.70;91.40;;;;;;7403498;19;19922;-72
2023/12/11 00:47:20;;;;;;;4.30;2.22;;;15.70;91.50;;;;;;7398315;19;19938;-72
2023/12/11 00:49:48;;;;;;;3.95;2.35;;;15.70;91.40;;;;;;7402153;19;19937;-72
2023/12/11 00:52:14;;;;;;;4.72;2.97;;;15.70;91.50;;;;;;7396660;19;19919;-73
2023/12/11 00:54:40;;;;;;;4.10;2.13;;;15.70;91.70;;;;;;7402525;19;19918;-72
2023/12/11 00:57:05;;;;;;;5.20;2.83;;;15.80;91.60;;;;;;7397557;19;19982;-73
2023/12/11 00:59:31;;;;;;;4.63;2.50;;;15.80;91.40;;;;;;7401329;19;19922;-73
2023/12/11 01:01:57;;;;;;;4.00;2.08;;;15.80;91.40;;;;;;7403484;19;20454;-73
2023/12/11 01:04:23;;;;;;;5.82;2.97;;;15.80;91.40;;;;;;7400381;19;19962;-72
2023/12/11 01:06:49;;;;;;;5.30;2.47;;;15.80;91.40;;;;;;7398111;19;19925;-73
2023/12/11 01:09:15;;;;;;;4.18;2.58;;;15.90;91.10;;;;;;7401197;19;19931;-72
2023/12/11 01:11:41;;;;;;;4.05;2.20;;;16.00;91.00;;;;;;7400689;19;19918;-72
2023/12/11 01:14:07;;;;;;;4.25;1.90;;;15.90;91.20;;;;;;7396334;19;19933;-72
2023/12/11 01:16:33;;;;;;;3.28;1.42;;;16.00;90.80;;;;;;7399844;19;19927;-72
2023/12/11 01:18:59;;;;;;;4.47;2.08;;;16.10;90.80;;;;;;7400781;19;19943;-73
2023/12/11 01:21:25;;;;;;;4.50;2.13;;;16.00;90.40;;;;;;7398946;19;19914;-72
2023/12/11 01:23:50;;;;;;;5.35;2.10;;;16.00;90.80;;;;;;7397786;19;19922;-71
2023/12/11 01:26:16;;;;;;;4.75;1.92;;;15.80;91.20;;;;;;7399905;19;19940;-72
2023/12/11 01:28:42;;;;;;;4.38;2.40;;;15.90;91.00;;;;;;7397606;19;19918;-72
2023/12/11 01:31:09;;;;;;;5.78;2.90;;;15.90;91.00;;;;;;7400830;19;19914;-73
2023/12/11 01:33:35;;;;;;;4.22;2.45;;;15.90;91.20;;;;;;7399406;19;20065;-73
2023/12/11 01:36:01;;;;;;;4.50;2.70;;;15.90;91.20;;;;;;7376323;19;19915;-72
2023/12/11 01:38:26;;;;;;;5.30;2.63;;;15.90;91.10;;;;;;7399363;19;19914;-73
2023/12/11 01:40:53;;;;;;;4.30;2.40;;;16.00;91.00;;;;;;7401636;19;19921;-71
2023/12/11 01:43:20;;;;;;;3.65;2.30;;;16.10;90.60;;;;;;7396400;19;19919;-72
2023/12/11 01:45:52;;;;;;;3.58;2.08;;;16.00;90.50;;;;;;7401407;19;20248;-71
2023/12/11 01:48:19;;;;;;;4.75;2.20;;;16.10;90.20;;;;;;7400194;19;19923;-73
2023/12/11 01:50:44;;;;;;;;;;;16.00;90.40;;;;;;7401719;19;19922;-72
2023/12/11 01:53:10;;;;;;;4.20;1.98;;;15.90;90.60;;;;;;7400337;19;19926;-72
2023/12/11 01:55:37;;;;;;;5.25;2.15;;;15.90;90.60;;;;;;7399940;19;19970;-72
2023/12/11 01:58:03;;;;;;;;;;;15.80;90.80;;;;;;7398936;19;20312;-71
2023/12/11 02:00:30;;;;;;;3.83;2.15;;;15.80;91.10;;;;;;7400430;19;19918;-72
2023/12/11 02:02:55;;;;;;;4.50;2.30;;;15.70;91.20;;;;;;7403266;19;19922;-72
2023/12/11 02:05:21;;;;;;;4.13;2.72;;;15.70;91.60;;;;;;7401508;19;20339;-72
2023/12/11 02:07:47;;;;;;;5.00;2.45;;;15.60;91.60;;;;;;7407651;19;19911;-72
2023/12/11 02:10:13;;;;;;;4.47;2.40;;;15.50;92.00;;;;;;7402748;19;19919;-72
2023/12/11 02:12:41;;;;;;;5.55;2.45;;;15.50;92.40;;;;;;7405189;19;19942;-71
2023/12/11 02:15:07;;;;;;;4.07;2.05;;;15.50;92.40;;;;;;7404116;19;19922;-72
2023/12/11 02:17:33;;;;;;;5.10;2.85;;;15.50;92.10;;;;;;7406451;19;19946;-71
2023/12/11 02:19:59;;;;;;;4.70;2.35;;;15.50;92.10;;;;;;7407483;19;19918;-71
2023/12/11 02:22:25;;;;;;;4.03;2.15;;;15.50;91.90;;;;;;7405168;19;19922;-72
2023/12/11 02:25:00;;;;;;;4.80;1.98;;;15.60;91.90;;;;;;7408427;19;20323;-72
2023/12/11 02:27:27;;;;;;;4.15;2.47;;;15.60;91.80;;;;;;7405143;19;20248;-71
2023/12/11 02:29:55;;;;;;;3.67;1.90;;;15.60;91.80;;;;;;7404943;19;19914;-72
2023/12/11 02:32:21;;;;;;;4.13;2.28;;;15.60;91.50;;;;;;7406088;19;19918;-71
2023/12/11 02:34:47;;;;;;;4.38;2.35;;;15.50;91.50;;;;;;7406780;19;19928;-72
2023/12/11 02:37:14;;;;;;;4.75;2.17;;;15.60;91.80;;;;;;7405282;19;19918;-72
2023/12/11 02:39:40;;;;;;;5.00;2.35;;;15.50;91.90;;;;;;7407100;19;19915;-72
2023/12/11 02:42:05;;;;;;;4.80;1.88;;;15.60;91.40;;;;;;7402705;19;19943;-71
2023/12/11 02:44:31;;;;;;;4.18;2.45;;;15.60;91.20;;;;;;7405880;19;19970;-72
2023/12/11 02:46:57;;;;;;;4.05;1.75;;;15.60;91.10;;;;;;7405546;19;20223;-71
2023/12/11 02:49:23;;;;;;;4.00;1.85;;;15.60;91.10;;;;;;7403104;19;19926;-72
2023/12/11 02:51:49;;;;;;;4.85;2.70;;;15.50;91.40;;;;;;7404332;19;19919;-71
2023/12/11 02:54:15;;;;;;;4.75;3.22;;;15.40;91.60;;;;;;7400747;19;19931;-72
2023/12/11 02:56:40;;;;;;;5.75;3.90;;;15.40;92.00;;;;;;7403007;19;19986;-71
2023/12/11 02:59:06;;;;;;;5.95;3.65;;;15.20;92.30;;;;;;7401950;19;19918;-72
2023/12/11 03:01:32;;;;;;;6.68;4.50;;;15.20;92.40;;;;;;7404524;19;19911;-71
2023/12/11 03:03:59;;;;;;;5.93;3.55;;;15.00;92.50;;;;;;7406782;19;19938;-72
2023/12/11 03:06:26;;;;;;;5.90;3.95;;;15.00;92.80;;;;;;7404995;19;19919;-72
2023/12/11 03:08:52;;;;;;;5.40;3.22;;;14.90;93.00;;;;;;7407803;19;20598;-72
2023/12/11 03:11:18;;;;;;;6.70;4.15;;;15.00;93.10;;;;;;7403761;19;19929;-72
2023/12/11 03:13:44;;;;;;;5.70;2.72;;;15.10;92.70;;;;;;7404242;19;19926;-71
2023/12/11 03:16:13;;;;;;;6.68;3.88;;;15.20;92.30;;;;;;7404388;19;19935;-72
2023/12/11 03:18:41;;;;;;;7.45;4.28;;;15.10;92.20;;;;;;7403623;19;19919;-70
2023/12/11 03:21:06;;;;;;;9.25;4.43;;;15.00;92.40;;;;;;7401401;19;19923;-72
2023/12/11 03:23:32;;;;;;;7.43;4.30;;;15.10;92.50;;;;;;7404425;19;19926;-72
2023/12/11 03:25:58;;;;;;;6.40;3.63;;;14.90;92.40;;;;;;7402262;19;19927;-72
2023/12/11 03:28:25;;;;;;;6.32;4.10;;;15.00;93.00;;;;;;7401796;19;19915;-72
2023/12/11 03:30:51;;;;;;;7.72;4.05;;;15.00;92.60;;;;;;7403085;19;19918;-72
2023/12/11 03:33:16;;;;;;;8.57;5.03;;;14.80;92.80;;;;;;7379131;19;19918;-71
2023/12/11 03:35:42;;;;;;;7.35;4.90;;;14.80;93.10;;;;;;7400097;19;19933;-71
2023/12/11 03:38:08;;;;;;;7.25;4.55;;;14.80;93.50;;;;;;7399660;19;19923;-72
2023/12/11 03:40:34;;;;;;;7.35;4.70;;;14.80;93.60;;;;;;7402112;19;19925;-72
2023/12/11 03:43:00;;;;;;;7.45;4.82;;;14.80;93.10;;;;;;7381142;19;19919;-71
2023/12/11 03:45:26;;;;;;;7.50;4.80;;;14.70;93.30;;;;;;7399845;19;19918;-72
2023/12/11 03:47:52;;;;;;;6.97;5.00;;;14.70;93.40;;;;;;7402313;19;19914;-72
2023/12/11 03:50:17;;;;;;;6.50;4.20;;;14.60;93.50;;;;;;7402121;19;20342;-72
2023/12/11 03:52:43;;;;;;;6.70;4.63;;;14.60;94.00;;;;;;7405612;19;19922;-71
2023/12/11 03:55:09;;;;;;;8.15;5.15;;;14.60;93.80;;;;;;7400548;19;19922;-71
2023/12/11 03:57:35;;;;;;;7.72;5.15;;;14.70;93.50;;;;;;7404448;19;20450;-72
2023/12/11 04:00:01;;;;;;;7.20;5.53;;;14.70;93.60;;;;;;7404562;19;19930;-72
2023/12/11 04:02:27;;;;;;;5.68;3.50;;;14.60;93.70;;;;;;7404104;19;19926;-72
2023/12/11 04:04:53;;;;;;;7.70;4.35;;;14.60;94.20;;;;;;7403736;19;19915;-72
2023/12/11 04:07:19;;;;;;;7.28;4.43;;;14.50;94.00;;;;;;7403346;19;19922;-71
2023/12/11 04:09:44;;;;;;;7.28;5.10;;;14.40;94.30;;;;;;7404736;19;20391;-72
2023/12/11 04:12:10;;;;;;;6.88;4.93;;;14.40;94.50;;;;;;7401129;19;19919;-72
2023/12/11 04:14:36;;;;;;;6.35;4.53;;;14.30;94.70;;;;;;7402579;19;19923;-72
2023/12/11 04:17:02;;;;;;;7.38;4.90;;;14.20;94.90;;;;;;7402596;19;19922;-71
2023/12/11 04:19:28;;;;;;;9.23;5.20;;;14.20;95.10;;;;;;7402122;19;20003;-72
2023/12/11 04:21:54;;;;;;;6.88;4.78;;;14.10;95.50;;;;;;7404289;19;19924;-72
2023/12/11 04:24:20;;;;;;;7.63;4.93;;;14.20;95.70;;;;;;7398832;19;19922;-72
2023/12/11 04:26:46;;;;;;;7.60;4.97;;;14.20;95.40;;;;;;7397352;19;19914;-72
2023/12/11 04:29:12;;;;;;;8.13;5.10;;;14.10;95.50;;;;;;7400415;19;20036;-72
2023/12/11 04:31:38;;;;;;;8.27;5.22;;;14.20;95.50;;;;;;7401973;19;19934;-72
2023/12/11 04:34:04;;;;;;;8.40;5.22;;;14.10;95.60;;;;;;7401030;19;19942;-73
2023/12/11 04:36:30;;;;;;;6.75;5.13;;;14.10;95.70;;;;;;7402954;19;19922;-72
2023/12/11 04:38:56;;;;;;;6.75;4.60;;;14.00;95.80;;;;;;7403783;19;19922;-72
2023/12/11 04:41:22;;;;;;;8.57;5.45;;;14.00;95.90;;;;;;7399717;19;19918;-72
2023/12/11 04:43:47;;;;;;;6.93;4.65;;;14.10;96.20;;;;;;7401466;19;19933;-72
2023/12/11 04:46:13;;;;;;;7.15;4.25;;;14.10;96.10;;;;;;7401030;19;20290;-72
2023/12/11 04:48:39;;;;;;;7.65;4.18;;;14.20;96.10;;;;;;7400649;19;20687;-71
2023/12/11 04:51:05;;;;;;;7.72;4.45;;;14.20;95.60;;;;;;7399628;19;19914;-72
2023/12/11 04:53:31;;;;;;;6.95;4.65;;;14.20;95.90;;;;;;7405008;19;19935;-71
2023/12/11 04:55:57;;;;;;;7.72;4.85;;;14.20;95.80;;;;;;7401057;19;20604;-72
2023/12/11 04:58:22;;;;;;;6.93;4.95;;;14.10;95.80;;;;;;7401801;19;19939;-72
2023/12/11 05:00:48;;;;;;;8.48;5.32;;;14.10;96.10;;;;;;7402524;19;19922;-71
2023/12/11 05:03:14;;;;;;;7.80;4.65;;;14.00;96.00;;;;;;7400451;19;20263;-72
2023/12/11 05:05:40;;;;;;;7.65;5.22;;;14.00;96.30;;;;;;7402519;19;19914;-72
2023/12/11 05:08:06;;;;;;;8.50;5.10;;;13.90;96.70;;;;;;7400064;19;19990;-71
2023/12/11 05:10:32;;;;;;;7.30;5.47;;;13.90;97.00;;;;;;7404179;19;19918;-71
2023/12/11 05:12:58;;;;;;;8.75;5.30;;;13.90;97.20;;;;;;7402691;19;19918;-72
2023/12/11 05:15:24;;;;;;;8.18;5.18;;;13.90;97.20;;;;;;7398720;19;19919;-73
2023/12/11 05:17:50;;;;;;;7.25;4.95;;;14.00;96.80;;;;;;7400637;19;19925;-72
2023/12/11 05:20:18;;;;;;;6.80;4.57;;;14.00;96.60;;;;;;7397543;19;19934;-71
2023/12/11 05:22:43;;;;;;;8.38;5.07;;;14.00;96.60;;;;;;7399537;19;19926;-71
2023/12/11 05:25:09;;;;;;;7.90;5.57;;;13.90;96.80;;;;;;7400664;19;19952;-71
2023/12/11 05:27:35;;;;;;;6.90;4.40;;;13.90;97.20;;;;;;7398516;19;19948;-71
2023/12/11 05:30:01;;;;;;;7.55;5.00;;;13.90;97.40;;;;;;7400880;19;20347;-71
2023/12/11 05:32:27;;;;;;;7.65;5.05;;;13.90;97.30;;;;;;7397546;19;20863;-71
2023/12/11 05:34:53;;;;;;;8.02;5.03;;;13.90;97.40;;;;;;7400346;19;19910;-72
2023/12/11 05:37:19;;;;;;;9.40;4.97;;;14.00;97.30;;;;;;7403080;19;19915;-72
2023/12/11 05:39:45;;;;;;;7.95;5.22;;;13.90;97.00;;;;;;7404940;19;19915;-72
2023/12/11 05:42:11;;;;;;;8.18;4.93;;;13.70;96.80;;;;;;7404565;19;19956;-72
2023/12/11 05:44:36;;;;;;;7.85;4.97;;;13.70;97.40;;;;;;7389365;19;19965;-72
2023/12/11 05:47:02;;;;;;;8.10;4.82;;;13.80;98.40;;;;;;7386936;19;20312;-72
2023/12/11 05:49:28;;;;;;;6.85;4.55;;;13.90;97.90;;;;;;7402035;19;19914;-72
2023/12/11 05:51:56;;;;;;;9.55;5.40;;;14.00;97.40;;;;;;7404993;19;19911;-72
2023/12/11 05:54:22;;;;;;;7.07;4.43;;;14.00;97.30;;;;;;7382048;19;19930;-72
2023/12/11 05:56:47;;;;;;;8.02;5.25;;;13.90;97.20;;;;;;7405677;19;20339;-72
2023/12/11 05:59:13;;;;;;;6.47;4.47;;;13.90;97.70;;;;;;7404813;19;19918;-71
2023/12/11 06:01:39;;;;;;;7.72;5.10;;;13.90;97.50;;;;;;7403429;19;19919;-73
2023/12/11 06:04:05;;;;;;;7.05;4.63;;;14.00;97.60;;;;;;7405956;19;19925;-72
2023/12/11 06:06:31;;;;;;;7.03;4.18;;;14.00;97.40;;;;;;7403688;19;19921;-72
2023/12/11 06:08:56;;;;;;;7.22;4.38;;;13.90;97.40;;;;;;7403309;19;19932;-71
2023/12/11 06:11:22;;;;;;;7.63;4.85;;;14.00;97.70;;;;;;7403419;19;19949;-72
2023/12/11 06:13:48;;;;;;;8.93;5.32;;;13.90;97.30;;;;;;7401462;19;19942;-71
2023/12/11 06:16:16;;;;;;;6.95;4.90;;;13.90;97.40;;;;;;7405923;19;19926;-72
2023/12/11 06:18:41;;;;;;;7.68;4.32;;;14.00;97.40;;;;;;7404415;19;19947;-71
2023/12/11 06:21:20;;;;;;;7.90;5.35;;;14.00;97.40;;;;;;7402439;19;19923;-72
2023/12/11 06:23:47;;;;;;;8.52;5.18;;;13.90;97.50;;;;;;7403613;19;20249;-72
2023/12/11 06:26:36;;;;;;;7.13;4.45;;;13.90;97.60;;;;;;7402525;19;20513;-73
2023/12/11 06:29:02;;;;;;;7.38;5.28;;;13.90;97.20;;;;;;7401084;19;19930;-71
2023/12/11 06:31:29;;;;;;;7.20;4.85;;;14.00;97.60;;;;;;7403741;19;19918;-71
2023/12/11 06:33:55;;;;;;;;;;;13.90;97.70;;;;;;7407268;19;19982;-73
2023/12/11 06:36:21;;;;;;;7.05;4.40;;;13.90;97.50;;;;;;7402131;19;19943;-72
2023/12/11 06:38:52;;;;;;;8.13;4.90;;;13.90;97.30;;;;;;7406389;19;19947;-72
2023/12/11 06:41:18;;;;;;;7.05;4.82;;;13.90;97.70;;;;;;7403057;19;20263;-72
2023/12/11 06:43:48;;;;;;;9.52;5.60;;;14.00;97.50;;;;;;7406886;19;19939;-72
2023/12/11 06:46:14;;;;;;;7.45;5.75;;;13.80;97.30;;;;;;7405311;19;19978;-72
2023/12/11 06:48:40;;;;;;;8.35;5.22;;;13.60;97.40;;;;;;7401488;19;19918;-72
2023/12/11 06:51:06;;;;;;;7.95;5.07;;;13.50;98.20;;;;;;7402146;19;19962;-72
2023/12/11 06:53:32;;;;;;;6.95;4.45;;;13.50;98.70;;;;;;7402811;19;19979;-72
2023/12/11 06:55:58;;;;;;;8.90;4.88;;;13.60;99.00;;;;;;7404188;19;19925;-71
2023/12/11 06:58:24;;;;;;;7.43;5.10;;;13.60;98.70;;;;;;7402911;19;19930;-72
2023/12/11 07:00:50;;;;;;;8.63;5.07;;;13.50;98.70;;;;;;7404946;19;19929;-72
2023/12/11 07:03:17;;;;;;;7.78;4.80;;;13.40;99.30;;;;;;7398887;19;19938;-71
2023/12/11 07:05:43;;;;;;;9.77;5.20;;;13.40;99.30;;;;;;7407568;19;19939;-72
2023/12/11 07:08:10;;;;;;;7.70;5.45;;;13.60;99.50;;;;;;7401023;19;19922;-72
2023/12/11 07:10:36;;;;;;;7.28;4.15;;;13.60;99.20;;;;;;7404281;19;20622;-73
2023/12/11 07:13:02;;;;;;;8.23;5.43;;;13.80;98.60;;;;;;7405270;19;19928;-72
2023/12/11 07:15:28;;;;;;;6.05;4.07;;;13.70;98.10;;;;;;7401197;19;19926;-71
2023/12/11 07:17:56;;;;;;;6.65;3.67;;;13.90;98.00;;;;;;7401932;19;19923;-72
2023/12/11 07:20:22;;;;;;;6.82;3.70;;;14.00;97.70;;;;;;7400604;19;20391;-72
2023/12/11 07:22:52;;;;;;;7.40;4.25;;;14.20;96.50;;;;;;7405568;19;19974;-72
2023/12/11 07:25:18;;;;;;;6.68;4.45;;;14.20;95.70;;;;;;7399482;19;19926;-72
2023/12/11 07:27:44;;;;;;;7.07;4.25;;;14.10;96.00;;;;;;7404128;19;19915;-72
2023/12/11 07:30:11;;;;;;;7.50;4.70;;;14.00;96.30;;;;;;7399442;19;20488;-71
2023/12/11 07:32:37;;;;;;;8.88;4.95;;;14.00;96.80;;;;;;7403722;19;20272;-73
2023/12/11 07:35:08;;;;;;;7.63;4.50;;;13.90;96.80;;;;;;7402914;19;19915;-71
2023/12/11 07:37:34;;;;;;;7.45;4.07;;;13.90;97.10;;;;;;7405031;19;19935;-73
2023/12/11 07:39:59;;;;;;;8.43;4.50;;;14.00;96.60;;;;;;7402972;19;20557;-73
2023/12/11 07:42:25;;;;;;;7.30;4.47;;;14.00;96.40;;;;;;7402818;19;19928;-72
2023/12/11 07:44:51;;;;;;;8.23;4.45;;;14.00;96.40;;;;;;7401705;19;19939;-73
2023/12/11 07:47:17;;;;;;;12.20;4.47;;;14.00;96.50;;;;;;7399637;19;20589;-72
2023/12/11 07:49:43;;;;;;;8.10;3.83;;;14.20;96.40;;;;;;7405556;19;19927;-71
2023/12/11 07:52:09;;;;;;;6.40;3.90;;;14.20;95.50;;;;;;7397939;19;19915;-71
2023/12/11 07:54:34;;;;;;;6.97;4.53;;;14.40;95.10;;;;;;7403693;19;19919;-72
2023/12/11 07:57:00;;;;;;;5.05;3.38;;;14.50;94.20;;;;;;7403132;19;19956;-72
2023/12/11 07:59:26;;;;;;;6.15;3.60;;;14.50;94.20;;;;;;7401263;19;19925;-72
2023/12/11 08:01:53;;;;;;;5.93;2.90;;;14.60;93.90;;;;;;7404040;19;20258;-71
2023/12/11 08:04:19;;;;;;;;;;;14.60;93.70;;;;;;7402377;19;20406;-72
2023/12/11 08:06:45;;;;;;;6.00;3.80;;;14.70;93.50;;;;;;7403420;19;19935;-73
2023/12/11 08:09:11;;;;;;;5.75;4.05;;;14.80;92.90;;;;;;7403122;19;20048;-71
2023/12/11 08:11:37;;;;;;;5.38;3.90;;;14.90;92.20;;;;;;7404597;19;19918;-71
2023/12/11 08:14:03;;;;;;;10.63;7.00;;;15.10;91.60;;;;;;7398844;19;19995;-72
2023/12/11 08:16:29;;;;;;;5.40;3.08;;;15.20;90.90;;;;;;7398956;19;19918;-71
2023/12/11 08:18:55;;;;;;;5.57;3.80;;;15.40;90.30;;;;;;7401190;19;19978;-72
2023/12/11 08:21:21;;;;;;;6.22;3.42;;;15.50;89.00;;;;;;7399938;19;20038;-72
2023/12/11 08:23:47;;;;;;;5.13;3.70;;;15.60;87.90;;;;;;7401772;19;19971;-73
2023/12/11 08:26:18;;;;;;;4.88;2.60;;;15.70;85.70;;;;;;7399434;19;19913;-72
2023/12/11 08:28:44;;;;;;;6.03;3.30;;;15.80;85.40;;;;;;7397797;19;19914;-73
2023/12/11 08:31:11;;;;;;;6.55;3.85;;;15.90;85.70;;;;;;7400639;19;19915;-73
2023/12/11 08:33:37;;;;;;;6.25;4.15;;;15.90;84.30;;;;;;7401666;19;19918;-72
2023/12/11 08:36:04;;;;;;;8.00;3.03;;;16.20;81.70;;;;;;7368209;19;19921;-72
2023/12/11 08:38:30;;;;;;;6.97;4.03;;;16.20;79.70;;;;;;7399680;19;19990;-71
2023/12/11 08:40:57;;;;;;;5.82;3.28;;;16.20;78.80;;;;;;7405301;19;19918;-73
2023/12/11 08:43:23;;;;;;;5.55;3.90;;;16.10;80.00;;;;;;7399595;19;19934;-73
2023/12/11 08:45:49;;;;;;;5.53;2.85;;;16.10;81.20;;;;;;7402434;19;19917;-72
2023/12/11 08:48:15;;;;;;;5.28;3.65;;;16.20;79.40;;;;;;7399925;19;19926;-73
2023/12/11 08:50:41;;;;;;;5.07;3.22;;;16.30;78.90;;;;;;7397478;19;19914;-72
2023/12/11 08:53:07;;;;;;;5.43;3.25;;;16.30;80.20;;;;;;7383361;19;19922;-74
2023/12/11 08:55:34;;;;;;;6.35;3.92;;;16.10;79.10;;;;;;7395783;19;19930;-73
2023/12/11 08:58:00;;;;;;;5.45;3.20;;;16.10;81.10;;;;;;7396279;19;19991;-74
2023/12/11 09:00:26;;;;;;;5.50;3.35;;;16.10;79.30;;;;;;7397621;19;19918;-72
2023/12/11 09:02:52;;;;;;;6.82;3.80;;;16.20;81.20;;;;;;7391387;19;19914;-72
2023/12/11 09:05:17;;;;;;;4.78;2.78;;;16.30;78.60;;;;;;7390727;19;19915;-72
2023/12/11 09:07:44;;;;;;;5.75;4.03;;;16.50;77.50;;;;;;7393476;19;19922;-72
2023/12/11 09:10:10;;;;;;;;;;;16.80;75.00;;;;;;7390711;19;19915;-73
2023/12/11 09:12:37;;;;;;;5.47;3.55;;;16.80;74.80;;;;;;7378632;19;19918;-72
2023/12/11 09:15:06;;;;;;;5.43;3.63;;;16.60;76.90;;;;;;7381609;19;19919;-74
2023/12/11 09:17:32;;;;;;;6.93;3.20;;;16.30;76.30;;;;;;7397082;19;20460;-72
2023/12/11 09:19:58;;;;;;;7.07;3.70;;;16.40;77.90;;;;;;7393479;19;20032;-73
2023/12/11 09:22:24;;;;;;;5.07;2.47;;;16.60;79.00;;;;;;7394235;19;20012;-73
2023/12/11 09:24:50;;;;;;;;;;;16.80;73.50;;;;;;7397716;19;19919;-73
2023/12/11 09:27:16;;;;;;;5.22;3.03;;;16.90;76.00;;;;;;7391206;19;19918;-73
2023/12/11 09:29:43;;;;;;;4.53;2.70;;;17.30;70.90;;;;;;7393671;19;19920;-71
2023/12/11 09:32:09;;;;;;;4.93;3.17;;;17.40;69.20;;;;;;7372405;19;19978;-73
2023/12/11 09:34:35;;;;;;;5.45;3.13;;;17.70;69.60;;;;;;7393185;19;19931;-72
2023/12/11 09:37:01;;;;;;;6.60;3.25;;;18.00;65.80;;;;;;7395505;19;19914;-73
2023/12/11 09:39:26;;;;;;;9.05;3.72;;;18.30;63.40;;;;;;7381671;19;20028;-73
2023/12/11 09:41:53;;;;;;;6.13;3.08;;;18.40;61.60;;;;;;7394679;19;20247;-72
2023/12/11 09:44:21;;;;;;;5.30;3.47;;;18.60;60.10;;;;;;7396049;19;19922;-72
2023/12/11 09:47:01;;;;;;;6.32;3.38;;;18.60;57.70;;;;;;7389821;19;20178;-73
2023/12/11 09:49:27;;;;;;;5.25;3.75;;;18.30;59.80;;;;;;7396461;19;19922;-72
2023/12/11 09:51:55;;;;;;;5.80;2.95;;;18.60;60.30;;;;;;7397674;19;19997;-74
2023/12/11 09:54:21;;;;;;;4.88;3.63;;;18.90;58.40;;;;;;7397534;19;19921;-73
2023/12/11 09:56:48;;;;;;;6.00;2.97;;;18.90;56.50;;;;;;7398848;19;19942;-73
2023/12/11 09:59:15;;;;;;;6.30;3.08;;;18.90;56.70;;;;;;7396683;19;19942;-72
2023/12/11 10:01:41;;;;;;;;;;;18.40;59.40;;;;;;7401379;19;19923;-72
2023/12/11 10:04:07;;;;;;;4.53;2.22;;;18.10;60.10;;;;;;7394930;19;20328;-72
2023/12/11 10:06:33;;;;;;;;;;;18.00;61.30;;;;;;7398674;19;20003;-72
2023/12/11 10:08:59;;;;;;;4.85;2.67;;;18.50;57.70;;;;;;7376175;19;20247;-73
2023/12/11 10:11:26;;;;;;;4.63;2.80;;;18.70;58.30;;;;;;7394518;19;19961;-71
2023/12/11 10:13:52;;;;;;;3.70;2.33;;;18.90;56.40;;;;;;7387364;19;19933;-73
2023/12/11 10:16:32;;;;;;;3.70;2.38;;;19.10;55.70;;;;;;7378681;19;19947;-71
2023/12/11 10:18:59;;;;;;;4.35;2.95;;;19.40;52.30;;;;;;7389804;19;19921;-71
2023/12/11 10:21:25;;;;;;;5.32;2.70;;;19.40;50.80;;;;;;7382856;19;19918;-71
2023/12/11 10:24:05;;;;;;;5.75;2.78;;;19.20;50.30;;;;;;7388800;19;19922;-71
2023/12/11 10:26:38;;;;;;;4.53;2.20;;;19.20;50.50;;;;;;7396259;19;19928;-72
2023/12/11 10:29:21;;;;;;;4.32;2.78;;;19.50;49.60;;;;;;7394825;19;19935;-71
2023/12/11 10:31:47;;;;;;;4.55;3.08;;;19.30;51.70;;;;;;7397030;19;19910;-72
2023/12/11 10:34:14;;;;;;;5.60;2.88;;;19.50;49.70;;;;;;7399451;19;19994;-72
2023/12/11 10:36:52;;;;;;;4.68;2.45;;;20.10;48.30;;;;;;7390863;19;19934;-72
2023/12/11 10:39:22;;;;;;;4.10;2.58;;;20.00;47.40;;;;;;7395486;19;19918;-72
2023/12/11 10:41:48;;;;;;;3.70;2.50;;;20.50;46.20;;;;;;7388183;19;19922;-72
2023/12/11 10:44:27;;;;;;;3.33;2.40;;;21.00;42.30;;;;;;7403278;19;19940;-71
2023/12/11 10:46:54;;;;;;;3.55;2.38;;;21.00;41.00;;;;;;7397829;19;19982;-72
2023/12/11 10:49:22;;;;;;;3.80;2.90;;;21.40;40.40;;;;;;7397746;19;19917;-71
2023/12/11 10:51:49;;;;;;;4.47;2.60;;;21.90;38.90;;;;;;7391501;19;19915;-71
2023/12/11 10:54:16;;;;;;;4.25;2.85;;;21.60;37.90;;;;;;7401221;19;20391;-71
2023/12/11 10:56:47;;;;;;;5.32;2.60;;;20.90;40.00;;;;;;7396784;19;19919;-71
2023/12/11 10:59:13;;;;;;;4.40;2.58;;;21.70;37.90;;;;;;7393490;19;20019;-71
2023/12/11 11:01:42;;;;;;;4.20;2.58;;;22.00;36.50;;;;;;7393705;19;20019;-73
2023/12/11 11:04:09;;;;;;;3.83;2.40;;;22.40;34.80;;;;;;7389548;19;20350;-72
2023/12/11 11:06:46;;;;;;;3.90;2.55;;;20.70;37.80;;;;;;7405464;19;20360;-72
2023/12/11 11:09:21;;;;;;;3.65;2.75;;;21.10;38.70;;;;;;7402330;19;19948;-72
2023/12/11 11:11:55;;;;;;;3.78;2.70;;;20.80;40.40;;;;;;7396068;19;20499;-72
2023/12/11 11:14:57;;;;;;;3.70;2.22;;;20.40;41.00;;;;;;7391885;19;20341;-72
2023/12/11 11:17:23;;;;;;;4.60;3.20;;;21.10;40.10;;;;;;7395568;19;19926;-71
2023/12/11 11:20:27;;;;;;;5.97;2.78;;;20.90;40.30;;;;;;7399623;19;19942;-73
2023/12/11 11:23:13;;;;;;;4.82;2.70;;;21.00;40.10;;;;;;7397691;19;19918;-72
2023/12/11 11:25:39;;;;;;;4.13;2.50;;;20.90;39.90;;;;;;7403024;19;20303;-71
2023/12/11 11:28:06;;;;;;;4.43;2.67;;;20.80;40.30;;;;;;7395913;19;19954;-72
2023/12/11 11:30:41;;;;;;;;;;;20.30;42.00;;;;;;7395921;19;19925;-72
2023/12/11 11:33:08;;;;;;;4.07;2.60;;;19.90;44.40;;;;;;7395095;19;19915;-72
2023/12/11 11:35:49;;;;;;;4.28;2.55;;;19.90;44.90;;;;;;7399345;19;19923;-72
2023/12/11 11:38:19;;;;;;;4.78;2.85;;;20.20;44.80;;;;;;7397196;19;19915;-72
2023/12/11 11:40:47;;;;;;;5.18;2.80;;;20.30;43.50;;;;;;7400926;19;19923;-72
2023/12/11 11:43:14;;;;;;;4.82;2.42;;;20.70;43.00;;;;;;7400540;19;19985;-71
2023/12/11 11:45:40;;;;;;;4.95;2.85;;;21.20;40.30;;;;;;7394341;19;19914;-72
2023/12/11 11:48:06;;;;;;;4.40;2.85;;;21.00;40.10;;;;;;7399600;19;19985;-71
2023/12/11 11:50:35;;;;;;;5.20;2.70;;;20.90;39.30;;;;;;7394892;19;19963;-71
2023/12/11 11:53:11;;;;;;;5.65;2.92;;;21.10;39.20;;;;;;7401492;19;20055;-71
2023/12/11 11:55:40;;;;;;;3.45;2.20;;;21.20;39.00;;;;;;7399844;19;19947;-71
2023/12/11 11:58:14;;;;;;;7.07;3.17;;;21.10;38.20;;;;;;7389533;19;19918;-71
2023/12/11 12:00:40;;;;;;;4.85;3.15;;;21.20;38.90;;;;;;7371542;19;19944;-71
2023/12/11 12:03:08;;;;;;;5.05;3.03;;;21.80;36.20;;;;;;7395844;19;20346;-73
2023/12/11 12:05:38;;;;;;;4.05;2.38;;;22.10;35.00;;;;;;7396417;19;19946;-71
2023/12/11 12:08:09;;;;;;;5.45;3.03;;;22.00;34.80;;;;;;7372791;19;19906;-72
2023/12/11 12:10:35;;;;;;;3.90;2.88;;;21.60;34.80;;;;;;7387790;19;19935;-71
2023/12/11 12:13:01;;;;;;;3.80;3.00;;;20.90;36.20;;;;;;7396987;19;19918;-72
2023/12/11 12:15:44;;;;;;;4.90;2.65;;;21.10;37.80;;;;;;7397422;19;19923;-71
2023/12/11 12:18:10;;;;;;;3.85;2.75;;;22.10;35.20;;;;;;7397330;19;19918;-71
2023/12/11 12:20:36;;;;;;;7.07;3.03;;;22.20;33.50;;;;;;7393307;19;19925;-72
2023/12/11 12:23:03;;;;;;;4.57;2.45;;;22.30;32.70;;;;;;7387701;19;19951;-72
2023/12/11 12:25:31;;;;;;;4.70;2.83;;;22.70;32.00;;;;;;7377248;19;19957;-73
2023/12/11 12:28:05;;;;;;;4.95;3.28;;;22.80;30.40;;;;;;7387190;19;19978;-71
2023/12/11 12:30:33;;;;;;;3.75;1.95;;;23.20;29.90;;;;;;7397005;19;20243;-72
2023/12/11 12:33:00;;;;;;;11.52;6.25;;;21.70;30.90;;;;;;7382030;19;19918;-72
2023/12/11 12:35:27;;;;;;;5.38;2.67;;;21.90;32.30;;;;;;7401219;19;19914;-71
2023/12/11 12:37:55;;;;;;;5.53;2.22;;;21.40;31.80;;;;;;7399903;19;20252;-71
2023/12/11 12:40:21;;;;;;;3.95;2.75;;;21.80;32.60;;;;;;7400900;19;20006;-74
2023/12/11 12:42:47;;;;;;;7.35;3.10;;;22.00;33.00;;;;;;7402156;19;20331;-73
2023/12/11 12:45:28;;;;;;;6.65;3.20;;;22.10;32.00;;;;;;7398252;19;19915;-72
2023/12/11 12:47:54;;;;;;;6.53;3.53;;;22.90;30.70;;;;;;7397758;19;19935;-72